Time;durP1;ratioP1;P1;durP2;ratioP2;P2;SDS_P1;SDS_P2;PMS_P1;PMS_P2;Temp;Humidity;BMP_temperature;BMP_pressure;BME280_temperature;BME280_humidity;BME280_pressure;Samples;Min_cycle;Max_cycle;Signal;HPM_P1;HPM_P2
2024/04/20 00:00:03;;;;;;;;;;;;;;;11.90;61.67;98880.59;5451751;26;20004;-41
2024/04/20 00:02:29;;;;;;;;;;;;;;;12.23;60.83;98869.28;5451003;26;20073;-41
2024/04/20 00:04:54;;;;;;;;;;;;;;;12.18;60.67;98869.16;5450958;26;19925;-41
2024/04/20 00:07:19;;;;;;;;;;;;;;;11.77;61.78;98870.13;5451012;26;19935;-41
2024/04/20 00:09:44;;;;;;;;;;;;;;;11.98;61.32;98860.75;5451252;26;19936;-40
2024/04/20 00:12:10;;;;;;;;;;;;;;;12.42;60.01;98853.13;5450924;26;19924;-41
2024/04/20 00:14:35;;;;;;;;;;;;;;;12.65;59.35;98855.69;5450725;26;19969;-41
2024/04/20 00:17:00;;;;;;;;;;;;;;;12.19;60.36;98843.31;5450727;26;19934;-41
2024/04/20 00:19:26;;;;;;;;;;;;;;;11.99;61.46;98839.16;5450527;26;19924;-41
2024/04/20 00:21:51;;;;;;;;;;;;;;;12.45;60.50;98825.94;5450756;26;19974;-41
2024/04/20 00:24:17;;;;;;;;;;;;;;;12.40;60.00;98796.50;5451454;26;19948;-41
2024/04/20 00:26:42;;;;;;;;;;;;;;;12.54;60.19;98810.38;5450981;26;20359;-41
2024/04/20 00:29:07;;;;;;;;;;;;;;;12.39;60.33;98802.88;5450633;26;19952;-41
2024/04/20 00:31:33;;;;;;;;;;;;;;;12.18;61.10;98794.47;5449993;26;19931;-39
2024/04/20 00:33:58;;;;;;;;;;;;;;;11.79;62.73;98793.41;5450304;26;19995;-42
2024/04/20 00:36:23;;;;;;;;;;;;;;;12.45;60.91;98801.94;5450283;26;19932;-42
2024/04/20 00:38:51;;;;;;;;;;;;;;;12.70;59.75;98799.72;5450910;26;19937;-40
2024/04/20 00:41:16;;;;;;;;;;;;;;;12.82;59.74;98823.69;5450500;26;19924;-40
2024/04/20 00:43:41;;;;;;;;;;;;;;;12.30;61.31;98837.16;5450040;26;19931;-40
2024/04/20 00:46:07;;;;;;;;;;;;;;;12.12;62.51;98848.78;5450098;26;19924;-40
2024/04/20 00:48:32;;;;;;;;;;;;;;;12.17;62.41;98843.56;5450412;26;19925;-40
2024/04/20 00:50:58;;;;;;;;;;;;;;;11.96;63.76;98839.66;5450214;26;19924;-40
2024/04/20 00:53:24;;;;;;;;;;;;;;;11.73;64.10;98832.47;5450204;26;19932;-40
2024/04/20 00:55:50;;;;;;;;;;;;;;;11.86;63.46;98839.38;5451670;26;19952;-40
2024/04/20 00:58:16;;;;;;;;;;;;;;;12.08;63.15;98827.09;5451690;26;19932;-40
2024/04/20 01:00:42;;;;;;;;;;;;;;;12.15;62.90;98832.31;5451906;26;19925;-40
2024/04/20 01:03:07;;;;;;;;;;;;;;;12.05;62.54;98830.25;5451238;26;19924;-40
2024/04/20 01:05:33;;;;;;;;;;;;;;;12.30;62.27;98823.81;5451444;26;19932;-40
2024/04/20 01:07:58;;;;;;;;;;;;;;;12.67;61.11;98810.06;5451934;26;19925;-41
2024/04/20 01:10:24;;;;;;;;;;;;;;;12.47;62.02;98805.16;5451774;26;19943;-40
2024/04/20 01:12:49;;;;;;;;;;;;;;;12.72;60.74;98812.84;5451118;26;19932;-40
2024/04/20 01:15:14;;;;;;;;;;;;;;;12.62;61.32;98813.47;5450742;26;20000;-26
2024/04/20 01:17:40;;;;;;;;;;;;;;;12.74;61.30;98810.75;5451178;26;20004;-26
2024/04/20 01:20:10;;;;;;;;;;;;;;;12.89;60.83;98815.53;5451074;26;19937;-26
2024/04/20 01:22:35;;;;;;;;;;;;;;;12.93;60.85;98815.84;5451235;26;20356;-26
2024/04/20 01:25:01;;;;;;;;;;;;;;;12.81;61.52;98807.91;5450746;26;19924;-26
2024/04/20 01:27:26;;;;;;;;;;;;;;;12.72;61.78;98812.84;5450729;26;19931;-25
2024/04/20 01:29:51;;;;;;;;;;;;;;;12.57;62.11;98804.56;5451410;26;19966;-25
2024/04/20 01:32:16;;;;;;;;;;;;;;;12.40;63.30;98812.53;5451033;26;19997;-26
2024/04/20 01:34:41;;;;;;;;;;;;;;;12.28;63.31;98810.72;5451603;26;19925;-26
2024/04/20 01:37:07;;;;;;;;;;;;;;;12.06;65.19;98825.72;5451288;26;19932;-27
2024/04/20 01:39:32;;;;;;;;;;;;;;;12.04;65.84;98838.47;5451070;26;19935;-27
2024/04/20 01:41:58;;;;;;;;;;;;;;;12.15;65.33;98842.16;5450935;26;19931;-25
2024/04/20 01:44:23;;;;;;;;;;;;;;;12.08;65.63;98851.09;5453449;26;20345;-26
2024/04/20 01:46:48;;;;;;;;;;;;;;;11.87;66.87;98830.34;5454277;26;20395;-26
2024/04/20 01:49:13;;;;;;;;;;;;;;;11.92;67.25;98836.63;5454013;26;19936;-25
2024/04/20 01:51:39;;;;;;;;;;;;;;;12.36;66.46;98836.19;5454501;26;19931;-27
2024/04/20 01:54:06;;;;;;;;;;;;;;;12.12;67.30;98838.91;5452674;26;19924;-26
2024/04/20 01:56:31;;;;;;;;;;;;;;;12.00;68.60;98851.47;5453673;26;20324;-27
2024/04/20 01:58:56;;;;;;;;;;;;;;;12.11;68.32;98852.50;5454358;26;19996;-26
2024/04/20 02:01:21;;;;;;;;;;;;;;;12.26;67.87;98858.16;5454420;26;20385;-26
2024/04/20 02:03:47;;;;;;;;;;;;;;;12.27;67.63;98851.75;5454206;26;20214;-26
2024/04/20 02:06:12;;;;;;;;;;;;;;;12.16;67.79;98849.13;5454189;26;19967;-27
2024/04/20 02:08:37;;;;;;;;;;;;;;;12.16;67.92;98860.59;5454594;26;19924;-26
2024/04/20 02:11:03;;;;;;;;;;;;;;;11.97;69.21;98853.78;5453976;26;19925;-26
2024/04/20 02:13:28;;;;;;;;;;;;;;;12.08;69.12;98852.97;5453771;26;19924;-27
2024/04/20 02:15:54;;;;;;;;;;;;;;;12.15;68.64;98858.16;5453934;26;20367;-26
2024/04/20 02:18:20;;;;;;;;;;;;;;;12.20;68.58;98860.94;5454545;26;19997;-27
2024/04/20 02:20:45;;;;;;;;;;;;;;;12.69;66.83;98859.50;5453944;26;19933;-27
2024/04/20 02:23:12;;;;;;;;;;;;;;;12.94;66.21;98862.88;5454031;26;19932;-26
2024/04/20 02:25:38;;;;;;;;;;;;;;;12.87;65.58;98863.84;5453834;26;20133;-27
2024/04/20 02:28:03;;;;;;;;;;;;;;;12.86;65.44;98870.22;5453675;26;19931;-27
2024/04/20 02:30:28;;;;;;;;;;;;;;;12.69;66.84;98872.03;5454426;26;19924;-26
2024/04/20 02:32:54;;;;;;;;;;;;;;;12.39;67.65;98865.06;5453695;26;19924;-26
2024/04/20 02:35:19;;;;;;;;;;;;;;;12.21;69.21;98860.69;5454198;26;20298;-26
2024/04/20 02:37:44;;;;;;;;;;;;;;;12.33;68.59;98860.66;5454147;26;19925;-26
2024/04/20 02:40:10;;;;;;;;;;;;;;;12.18;68.88;98860.34;5453754;26;20367;-26
2024/04/20 02:42:35;;;;;;;;;;;;;;;11.99;69.84;98860.50;5453423;26;20337;-25
2024/04/20 02:45:00;;;;;;;;;;;;;;;12.10;69.51;98850.88;5453759;26;19924;-26
2024/04/20 02:47:26;;;;;;;;;;;;;;;12.03;70.19;98861.69;5453311;26;20384;-26
2024/04/20 02:49:52;;;;;;;;;;;;;;;11.82;70.67;98859.56;5453292;26;19931;-26
2024/04/20 02:52:17;;;;;;;;;;;;;;;12.06;70.18;98858.53;5453972;26;20323;-26
2024/04/20 02:54:44;;;;;;;;;;;;;;;12.30;69.54;98850.50;5452027;26;19924;-26
2024/04/20 02:57:09;;;;;;;;;;;;;;;12.44;69.36;98856.34;5452950;26;19956;-26
2024/04/20 02:59:35;;;;;;;;;;;;;;;12.50;68.75;98855.41;5453379;26;19924;-26
2024/04/20 03:02:00;;;;;;;;;;;;;;;12.49;68.57;98859.94;5454172;26;20581;-25
2024/04/20 03:04:25;;;;;;;;;;;;;;;12.27;69.14;98859.75;5453402;26;19950;-26
2024/04/20 03:06:50;;;;;;;;;;;;;;;12.54;68.22;98861.06;5453377;26;19948;-26
2024/04/20 03:09:16;;;;;;;;;;;;;;;12.48;68.37;98868.97;5453186;26;20431;-27
2024/04/20 03:11:41;;;;;;;;;;;;;;;12.27;69.14;98867.75;5453732;26;20234;-26
2024/04/20 03:14:06;;;;;;;;;;;;;;;12.47;68.45;98867.38;5452832;26;20253;-26
2024/04/20 03:16:31;;;;;;;;;;;;;;;12.57;68.19;98871.28;5452623;26;20015;-26
2024/04/20 03:18:56;;;;;;;;;;;;;;;12.49;68.15;98857.25;5452974;26;19924;-26
2024/04/20 03:21:22;;;;;;;;;;;;;;;12.83;66.55;98852.03;5453117;26;19925;-26
2024/04/20 03:23:47;;;;;;;;;;;;;;;12.61;66.23;98848.41;5452940;26;19931;-27
2024/04/20 03:26:12;;;;;;;;;;;;;;;12.77;66.30;98849.50;5452710;26;20013;-26
2024/04/20 03:28:37;;;;;;;;;;;;;;;13.07;65.04;98841.19;5453067;26;19924;-26
2024/04/20 03:31:03;;;;;;;;;;;;;;;13.17;64.96;98852.03;5452806;26;19932;-26
2024/04/20 03:33:34;;;;;;;;;;;;;;;13.00;64.78;98851.22;5453580;26;19924;-26
2024/04/20 03:35:59;;;;;;;;;;;;;;;13.00;64.66;98843.22;5453847;26;20367;-27
2024/04/20 03:38:24;;;;;;;;;;;;;;;13.24;63.83;98844.69;5453360;26;19925;-26
2024/04/20 03:40:50;;;;;;;;;;;;;;;12.95;63.83;98833.25;5453484;26;19940;-26
2024/04/20 03:43:15;;;;;;;;;;;;;;;13.32;62.75;98830.16;5453138;26;19924;-26
2024/04/20 03:45:40;;;;;;;;;;;;;;;13.47;62.20;98822.34;5452633;26;19924;-26
2024/04/20 03:48:06;;;;;;;;;;;;;;;13.73;61.30;98822.75;5452842;26;19989;-25
2024/04/20 03:50:31;;;;;;;;;;;;;;;13.91;60.22;98821.63;5450917;26;19935;-25
2024/04/20 03:52:56;;;;;;;;;;;;;;;13.97;59.42;98823.31;5452573;26;19924;-28
2024/04/20 03:55:22;;;;;;;;;;;;;;;14.18;60.10;98826.25;5452483;26;19931;-27
2024/04/20 03:57:47;;;;;;;;;;;;;;;13.81;62.16;98826.84;5452788;26;19932;-25
2024/04/20 04:00:12;;;;;;;;;;;;;;;13.81;62.57;98826.84;5452869;26;19936;-27
2024/04/20 04:02:38;;;;;;;;;;;;;;;14.26;60.16;98833.84;5453451;26;19925;-27
2024/04/20 04:05:03;;;;;;;;;;;;;;;14.66;59.23;98848.78;5452923;26;19932;-27
2024/04/20 04:07:28;;;;;;;;;;;;;;;14.79;58.04;98861.78;5451494;26;19925;-28
2024/04/20 04:09:54;;;;;;;;;;;;;;;14.93;57.43;98859.50;5453384;26;20340;-26
2024/04/20 04:12:19;;;;;;;;;;;;;;;14.94;58.12;98863.78;5452978;26;19925;-26
2024/04/20 04:14:44;;;;;;;;;;;;;;;14.92;58.24;98867.78;5453037;26;19931;-27
2024/04/20 04:17:09;;;;;;;;;;;;;;;15.04;57.36;98866.56;5453416;26;19932;-26
2024/04/20 04:19:35;;;;;;;;;;;;;;;15.21;55.93;98861.09;5452949;26;20047;-28
2024/04/20 04:22:00;;;;;;;;;;;;;;;15.14;55.69;98865.84;5453256;26;19931;-25
2024/04/20 04:24:25;;;;;;;;;;;;;;;15.43;67.75;98879.75;5453236;26;19924;-27
2024/04/20 04:26:51;;;;;;;;;;;;;;;15.62;58.39;98876.69;5453846;26;19936;-28
2024/04/20 04:29:16;;;;;;;;;;;;;;;15.72;55.69;98875.94;5452996;26;19925;-27
2024/04/20 04:31:42;;;;;;;;;;;;;;;15.66;54.28;98877.78;5452790;26;20329;-26
2024/04/20 04:34:07;;;;;;;;;;;;;;;15.35;54.96;98877.56;5453007;26;19924;-26
2024/04/20 04:36:32;;;;;;;;;;;;;;;15.18;55.90;98866.16;5453113;26;19953;-27
2024/04/20 04:38:58;;;;;;;;;;;;;;;15.02;57.18;98868.69;5452840;26;19924;-26
2024/04/20 04:41:24;;;;;;;;;;;;;;;15.02;58.05;98857.16;5453086;26;20245;-26
2024/04/20 04:43:49;;;;;;;;;;;;;;;14.94;58.68;98854.94;5452947;26;19925;-28
2024/04/20 04:46:14;;;;;;;;;;;;;;;14.68;59.89;98849.34;5452533;26;19969;-26
2024/04/20 04:48:40;;;;;;;;;;;;;;;14.74;59.67;98848.31;5451754;26;19924;-27
2024/04/20 04:51:05;;;;;;;;;;;;;;;14.82;59.63;98844.38;5453159;26;19925;-28
2024/04/20 04:53:30;;;;;;;;;;;;;;;14.93;59.42;98840.75;5452393;26;19924;-27
2024/04/20 04:55:55;;;;;;;;;;;;;;;14.91;67.47;98847.41;5452347;26;19932;-26
2024/04/20 04:58:21;;;;;;;;;;;;;;;15.41;73.20;98848.91;5451175;26;20345;-27
2024/04/20 05:00:46;;;;;;;;;;;;;;;15.82;71.10;98844.66;5451953;26;20250;-27
2024/04/20 05:03:12;;;;;;;;;;;;;;;16.06;62.55;98841.56;5451964;26;19931;-27
2024/04/20 05:05:37;;;;;;;;;;;;;;;15.70;60.36;98853.94;5452066;26;20014;-28
2024/04/20 05:08:02;;;;;;;;;;;;;;;15.40;63.12;98864.19;5452163;26;19924;-28
2024/04/20 05:10:28;;;;;;;;;;;;;;;15.90;61.77;98862.13;5452408;26;19933;-26
2024/04/20 05:12:53;;;;;;;;;;;;;;;15.84;59.76;98865.88;5452535;26;20349;-27
2024/04/20 05:15:18;;;;;;;;;;;;;;;16.00;60.57;98861.38;5448576;26;19925;-27
2024/04/20 05:17:44;;;;;;;;;;;;;;;16.30;58.04;98862.63;5447633;26;19931;-27
2024/04/20 05:20:12;;;;;;;;;;;;;;;15.74;57.38;98879.19;5448406;26;19931;-27
2024/04/20 05:22:37;;;;;;;;;;;;;;;15.77;59.69;98879.50;5448283;26;19931;-27
2024/04/20 05:25:03;;;;;;;;;;;;;;;15.25;61.35;98874.78;5448457;26;19924;-27
2024/04/20 05:27:28;;;;;;;;;;;;;;;15.97;59.24;98880.69;5448653;26;20403;-28
2024/04/20 05:29:53;;;;;;;;;;;;;;;15.72;57.02;98868.69;5449512;26;19925;-27
2024/04/20 05:32:18;;;;;;;;;;;;;;;14.82;59.99;98876.53;5449411;26;20353;-27
2024/04/20 05:34:44;;;;;;;;;;;;;;;14.55;61.51;98879.16;5451952;26;19935;-27
2024/04/20 05:37:11;;;;;;;;;;;;;;;14.92;60.08;98889.22;5451664;26;19924;-27
2024/04/20 05:39:36;;;;;;;;;;;;;;;14.95;59.67;98884.16;5451856;26;20022;-27
2024/04/20 05:42:01;;;;;;;;;;;;;;;13.98;62.66;98883.78;5452020;26;20322;-27
2024/04/20 05:44:27;;;;;;;;;;;;;;;14.06;62.70;98894.06;5451342;26;19940;-27
2024/04/20 05:46:53;;;;;;;;;;;;;;;13.83;62.71;98894.28;5451454;26;20291;-28
2024/04/20 05:49:18;;;;;;;;;;;;;;;14.05;62.04;98900.47;5451606;26;19925;-27
2024/04/20 05:51:43;;;;;;;;;;;;;;;14.51;61.13;98907.47;5449972;26;19990;-27
2024/04/20 05:54:08;;;;;;;;;;;;;;;13.96;62.70;98909.16;5448465;26;19936;-27
2024/04/20 05:56:33;;;;;;;;;;;;;;;14.50;61.42;98911.22;5448733;26;19932;-27
2024/04/20 05:58:59;;;;;;;;;;;;;;;14.59;59.89;98907.88;5448128;26;20249;-27
2024/04/20 06:01:24;;;;;;;;;;;;;;;14.22;60.93;98897.75;5448744;26;19932;-27
2024/04/20 06:03:49;;;;;;;;;;;;;;;14.81;59.43;98891.78;5448444;26;19924;-27
2024/04/20 06:06:15;;;;;;;;;;;;;;;14.51;59.05;98896.75;5450287;26;19924;-27
2024/04/20 06:08:41;;;;;;;;;;;;;;;14.59;59.18;98891.81;5451295;26;19934;-26
2024/04/20 06:11:08;;;;;;;;;;;;;;;14.02;60.11;98884.09;5450907;26;20377;-27
2024/04/20 06:13:34;;;;;;;;;;;;;;;14.21;60.05;98900.69;5450377;26;19924;-26
2024/04/20 06:15:59;;;;;;;;;;;;;;;14.41;59.59;98898.28;5449531;26;19935;-27
2024/04/20 06:18:24;;;;;;;;;;;;;;;14.90;58.55;98900.16;5450900;26;19925;-26
2024/04/20 06:20:51;;;;;;;;;;;;;;;14.60;58.64;98900.63;5450506;26;19935;-28
2024/04/20 06:23:17;;;;;;;;;;;;;;;14.28;59.13;98890.63;5450553;26;19924;-27
2024/04/20 06:25:45;;;;;;;;;;;;;;;14.77;58.13;98887.16;5448471;26;19940;-28
2024/04/20 06:28:10;;;;;;;;;;;;;;;14.70;58.24;98892.75;5450157;26;19933;-27
2024/04/20 06:30:35;;;;;;;;;;;;;;;14.43;58.61;98890.78;5454050;26;20260;-27
2024/04/20 06:33:01;;;;;;;;;;;;;;;15.21;56.83;98889.75;5454145;26;19925;-27
2024/04/20 06:35:26;;;;;;;;;;;;;;;15.26;56.28;98884.44;5454461;26;19993;-27
2024/04/20 06:37:51;;;;;;;;;;;;;;;15.36;55.16;98870.31;5453570;26;19924;-27
2024/04/20 06:40:16;;;;;;;;;;;;;;;15.44;54.75;98875.22;5453832;26;20001;-28
2024/04/20 06:42:45;;;;;;;;;;;;;;;15.33;54.90;98873.53;5453588;26;19924;-27
2024/04/20 06:45:10;;;;;;;;;;;;;;;15.09;55.95;98868.47;5453547;26;19924;-28
2024/04/20 06:47:36;;;;;;;;;;;;;;;14.73;56.16;98864.63;5453544;26;19932;-27
2024/04/20 06:50:01;;;;;;;;;;;;;;;14.77;55.87;98863.06;5453925;26;19924;-28
2024/04/20 06:52:26;;;;;;;;;;;;;;;14.50;56.55;98865.69;5453716;26;19924;-26
2024/04/20 06:54:51;;;;;;;;;;;;;;;14.90;56.26;98864.53;5454163;26;20361;-27
2024/04/20 06:57:17;;;;;;;;;;;;;;;15.04;55.12;98866.56;5454489;26;19936;-29
2024/04/20 06:59:42;;;;;;;;;;;;;;;15.24;54.73;98865.94;5453446;26;20013;-27
2024/04/20 07:02:07;;;;;;;;;;;;;;;15.65;52.94;98865.44;5454062;26;19935;-26
2024/04/20 07:04:33;;;;;;;;;;;;;;;15.25;53.85;98872.91;5453831;26;20292;-27
2024/04/20 07:06:58;;;;;;;;;;;;;;;15.64;53.11;98878.03;5455116;26;19924;-28
2024/04/20 07:09:24;;;;;;;;;;;;;;;15.17;54.37;98877.91;5453598;26;20260;-27
2024/04/20 07:11:49;;;;;;;;;;;;;;;15.58;53.62;98870.22;5454359;26;19966;-27
2024/04/20 07:14:14;;;;;;;;;;;;;;;16.18;52.23;98874.38;5454542;26;19932;-27
2024/04/20 07:16:40;;;;;;;;;;;;;;;16.54;51.04;98871.81;5454387;26;19932;-27
2024/04/20 07:19:05;;;;;;;;;;;;;;;16.80;50.61;98875.38;5453845;26;19932;-27
2024/04/20 07:21:30;;;;;;;;;;;;;;;16.75;48.56;98883.44;5454216;26;20000;-27
2024/04/20 07:23:55;;;;;;;;;;;;;;;16.41;49.26;98878.50;5454071;26;19936;-28
2024/04/20 07:26:21;;;;;;;;;;;;;;;17.12;48.62;98878.97;5453389;26;19932;-28
2024/04/20 07:28:46;;;;;;;;;;;;;;;17.56;47.85;98884.59;5454857;26;19929;-28
2024/04/20 07:31:12;;;;;;;;;;;;;;;17.56;47.48;98881.91;5454028;26;20270;-27
2024/04/20 07:33:37;;;;;;;;;;;;;;;17.37;48.22;98878.16;5454138;26;19932;-28
2024/04/20 07:36:02;;;;;;;;;;;;;;;17.39;47.97;98876.00;5453635;26;19970;-27
2024/04/20 07:38:27;;;;;;;;;;;;;;;17.30;47.52;98872.25;5453959;26;19924;-27
2024/04/20 07:40:53;;;;;;;;;;;;;;;18.16;46.37;98871.34;5452866;26;20336;-28
2024/04/20 07:43:18;;;;;;;;;;;;;;;17.22;47.71;98870.91;5454305;26;19924;-28
2024/04/20 07:45:43;;;;;;;;;;;;;;;18.15;45.53;98869.72;5454810;26;19957;-27
2024/04/20 07:48:08;;;;;;;;;;;;;;;18.29;45.19;98856.47;5453370;26;19936;-27
2024/04/20 07:50:34;;;;;;;;;;;;;;;16.90;47.58;98863.88;5454011;26;19932;-28
2024/04/20 07:52:59;;;;;;;;;;;;;;;17.53;46.78;98858.25;5453613;26;20249;-26
2024/04/20 07:55:25;;;;;;;;;;;;;;;17.66;46.10;98856.09;5453871;26;20246;-28
2024/04/20 07:57:50;;;;;;;;;;;;;;;17.99;45.33;98868.16;5453635;26;19932;-28
2024/04/20 08:00:16;;;;;;;;;;;;;;;18.05;44.97;98856.31;5454045;26;20282;-27
2024/04/20 08:02:43;;;;;;;;;;;;;;;18.64;43.48;98856.56;5454083;26;19931;-27
2024/04/20 08:05:08;;;;;;;;;;;;;;;19.33;43.06;98862.88;5453360;26;19925;-26
2024/04/20 08:07:34;;;;;;;;;;;;;;;19.79;41.92;98862.50;5452583;26;19948;-27
2024/04/20 08:09:59;;;;;;;;;;;;;;;19.46;40.98;98862.25;5452989;26;20369;-26
2024/04/20 08:12:24;;;;;;;;;;;;;;;19.59;40.24;98855.38;5453165;26;19940;-26
2024/04/20 08:14:50;;;;;;;;;;;;;;;19.94;39.46;98855.34;5453031;26;20373;-27
2024/04/20 08:17:15;;;;;;;;;;;;;;;20.59;39.10;98847.50;5453410;26;19935;-27
2024/04/20 08:19:40;;;;;;;;;;;;;;;20.66;38.09;98842.56;5453764;26;19993;-27
2024/04/20 08:22:06;;;;;;;;;;;;;;;20.99;37.56;98845.34;5453090;26;19925;-28
2024/04/20 08:24:34;;;;;;;;;;;;;;;21.54;35.40;98835.81;5453645;26;19924;-27
2024/04/20 08:26:59;;;;;;;;;;;;;;;22.48;35.40;98833.75;5452300;26;19956;-26
2024/04/20 08:29:25;;;;;;;;;;;;;;;22.42;34.59;98833.06;5453414;26;19924;-29
2024/04/20 08:31:50;;;;;;;;;;;;;;;22.15;35.77;98836.56;5453589;26;19933;-27
2024/04/20 08:34:15;;;;;;;;;;;;;;;20.69;36.56;98839.31;5453745;26;19936;-27
2024/04/20 08:36:40;;;;;;;;;;;;;;;21.07;36.79;98846.56;5452950;26;19931;-27
2024/04/20 08:39:06;;;;;;;;;;;;;;;21.09;35.98;98850.59;5452905;26;19936;-28
2024/04/20 08:41:32;;;;;;;;;;;;;;;21.29;35.71;98854.06;5452923;26;19924;-27
2024/04/20 08:44:00;;;;;;;;;;;;;;;21.95;34.70;98846.72;5453718;26;19936;-27
2024/04/20 08:46:26;;;;;;;;;;;;;;;21.73;34.29;98833.84;5449079;26;19931;-28
2024/04/20 08:48:54;;;;;;;;;;;;;;;22.37;34.55;98841.28;5452901;26;19931;-26
2024/04/20 08:51:20;;;;;;;;;;;;;;;22.29;33.75;98840.09;5452520;26;19924;-27
2024/04/20 08:53:47;;;;;;;;;;;;;;;22.13;33.19;98836.88;5452020;26;19931;-27
2024/04/20 08:56:12;;;;;;;;;;;;;;;22.12;32.83;98832.53;5452816;26;19933;-27
2024/04/20 08:58:37;;;;;;;;;;;;;;;22.65;32.71;98829.28;5451971;26;19924;-27
2024/04/20 09:01:04;;;;;;;;;;;;;;;23.61;30.14;98829.19;5452965;26;19925;-26
2024/04/20 09:03:29;;;;;;;;;;;;;;;23.47;31.03;98829.25;5452497;26;19925;-26
2024/04/20 09:05:55;;;;;;;;;;;;;;;22.81;32.27;98827.03;5450853;26;19932;-27
2024/04/20 09:08:21;;;;;;;;;;;;;;;23.85;31.14;98811.72;5450763;26;20348;-27
2024/04/20 09:10:46;;;;;;;;;;;;;;;23.64;30.43;98806.81;5452539;26;19935;-26
2024/04/20 09:13:15;;;;;;;;;;;;;;;22.98;30.48;98812.81;5452954;26;20245;-27
2024/04/20 09:15:41;;;;;;;;;;;;;;;23.90;29.13;98804.25;5453134;26;19924;-26
2024/04/20 09:18:06;;;;;;;;;;;;;;;24.23;28.99;98801.13;5452557;26;19925;-27
2024/04/20 09:20:31;;;;;;;;;;;;;;;25.02;28.60;98798.47;5453443;26;20000;-28
2024/04/20 09:23:06;;;;;;;;;;;;;;;24.71;29.26;98794.81;5452142;26;19924;-26
2024/04/20 09:25:33;;;;;;;;;;;;;;;24.89;28.23;98783.94;5416807;26;19955;-28
2024/04/20 09:27:59;;;;;;;;;;;;;;;25.12;28.66;98789.97;5416363;26;19925;-27
2024/04/20 09:30:25;;;;;;;;;;;;;;;25.26;28.35;98787.88;5451295;26;20333;-27
2024/04/20 09:32:50;;;;;;;;;;;;;;;24.23;28.64;98773.94;5452286;26;20018;-26
2024/04/20 09:35:16;;;;;;;;;;;;;;;23.24;29.44;98782.34;5452490;26;20476;-27
2024/04/20 09:37:41;;;;;;;;;;;;;;;23.49;29.67;98782.78;5450783;26;19931;-27
2024/04/20 09:40:08;;;;;;;;;;;;;;;24.80;28.07;98781.19;5451879;26;19924;-28
2024/04/20 09:42:34;;;;;;;;;;;;;;;25.51;27.90;98777.22;5452440;26;20034;-28
2024/04/20 09:45:00;;;;;;;;;;;;;;;24.98;27.54;98773.84;5452045;26;19997;-27
2024/04/20 09:47:28;;;;;;;;;;;;;;;25.29;27.30;98765.47;5451868;26;19924;-28
2024/04/20 09:49:54;;;;;;;;;;;;;;;25.70;27.05;98755.88;5452206;26;20245;-27
2024/04/20 09:52:32;;;;;;;;;;;;;;;25.58;25.80;98754.94;5451247;26;20328;-29
2024/04/20 09:55:04;;;;;;;;;;;;;;;24.65;27.97;98751.78;5452802;26;20306;-27
2024/04/20 09:57:32;;;;;;;;;;;;;;;25.44;26.72;98755.19;5452001;26;19924;-27
2024/04/20 09:59:57;;;;;;;;;;;;;;;24.73;27.14;98740.91;5457289;26;19934;-28
2024/04/20 10:02:22;;;;;;;;;;;;;;;24.80;26.67;98753.22;5451961;26;20228;-28
2024/04/20 10:04:48;;;;;;;;;;;;;;;24.48;26.38;98756.06;5443880;26;19928;-27
2024/04/20 10:07:14;;;;;;;;;;;;;;;25.13;26.63;98757.00;5466916;26;19935;-27
2024/04/20 10:09:41;;;;;;;;;;;;;;;25.47;26.00;98741.69;5434589;26;19933;-29
2024/04/20 10:12:07;;;;;;;;;;;;;;;26.07;25.49;98749.91;5440768;26;19953;-29
2024/04/20 10:14:32;;;;;;;;;;;;;;;26.23;24.70;98740.00;5455278;26;19948;-28
2024/04/20 10:17:00;;;;;;;;;;;;;;;24.38;26.46;98742.78;5454730;26;19925;-29
2024/04/20 10:19:34;;;;;;;;;;;;;;;25.08;26.29;98748.19;5454848;26;20397;-27
2024/04/20 10:21:59;;;;;;;;;;;;;;;25.05;27.05;98746.91;5454855;26;19937;-28
2024/04/20 10:24:24;;;;;;;;;;;;;;;24.83;27.01;98747.94;5455228;26;19925;-27
2024/04/20 10:26:50;;;;;;;;;;;;;;;24.94;26.72;98742.94;5455525;26;19932;-27
2024/04/20 10:29:20;;;;;;;;;;;;;;;24.99;26.78;98740.03;5455947;26;19928;-27
2024/04/20 10:31:54;;;;;;;;;;;;;;;24.87;26.86;98738.00;5429773;26;19925;-29
2024/04/20 10:34:26;;;;;;;;;;;;;;;24.56;26.58;98732.72;5453292;26;19931;-30
2024/04/20 10:37:01;;;;;;;;;;;;;;;25.26;26.29;98727.19;5455292;26;20261;-28
2024/04/20 10:39:27;;;;;;;;;;;;;;;25.53;26.07;98715.88;5455088;26;19931;-27
2024/04/20 10:41:52;;;;;;;;;;;;;;;25.70;25.43;98719.63;5454645;26;19924;-28
2024/04/20 10:44:18;;;;;;;;;;;;;;;24.55;30.62;98715.63;5454441;26;19924;-27
2024/04/20 10:46:47;;;;;;;;;;;;;;;25.63;27.87;98713.91;5454658;26;20255;-28
2024/04/20 10:49:13;;;;;;;;;;;;;;;26.29;25.25;98716.06;5454491;26;19925;-27
2024/04/20 10:51:49;;;;;;;;;;;;;;;25.73;25.69;98713.53;5453833;26;19939;-29
2024/04/20 10:54:17;;;;;;;;;;;;;;;24.69;26.51;98709.22;5446837;26;19989;-27
2024/04/20 10:56:43;;;;;;;;;;;;;;;25.83;26.17;98718.59;5451762;26;19932;-28
2024/04/20 10:59:08;;;;;;;;;;;;;;;26.13;24.81;98719.41;5452011;26;19974;-27
2024/04/20 11:01:33;;;;;;;;;;;;;;;26.72;24.01;98723.13;5452020;26;20261;-27
2024/04/20 11:04:01;;;;;;;;;;;;;;;25.16;25.17;98720.94;5453018;26;19925;-27
2024/04/20 11:06:26;;;;;;;;;;;;;;;25.89;24.92;98719.19;5453424;26;19948;-27
2024/04/20 11:08:51;;;;;;;;;;;;;;;26.27;25.37;98718.34;5454208;26;19931;-26
2024/04/20 11:11:17;;;;;;;;;;;;;;;26.77;24.72;98708.47;5453818;26;20290;-28
2024/04/20 11:13:42;;;;;;;;;;;;;;;26.64;23.65;98705.69;5453557;26;20261;-27
2024/04/20 11:16:09;;;;;;;;;;;;;;;25.10;25.81;98707.84;5454681;26;19937;-27
2024/04/20 11:18:35;;;;;;;;;;;;;;;25.79;26.28;98700.53;5454290;26;19924;-27
2024/04/20 11:21:01;;;;;;;;;;;;;;;26.25;24.90;98699.56;5455133;26;19924;-27
2024/04/20 11:23:28;;;;;;;;;;;;;;;25.05;26.43;98705.28;5454150;26;20360;-27
2024/04/20 11:25:54;;;;;;;;;;;;;;;25.78;26.30;98707.91;5454093;26;19924;-28
2024/04/20 11:28:20;;;;;;;;;;;;;;;25.90;25.28;98710.69;5454532;26;20356;-26
2024/04/20 11:30:45;;;;;;;;;;;;;;;25.86;25.38;98715.22;5454028;26;19924;-29
2024/04/20 11:33:12;;;;;;;;;;;;;;;25.21;26.17;98716.44;5454753;26;19925;-27
2024/04/20 11:35:37;;;;;;;;;;;;;;;26.31;25.56;98706.44;5454432;26;19931;-29
2024/04/20 11:38:06;;;;;;;;;;;;;;;26.77;25.14;98714.72;5454093;26;19952;-27
2024/04/20 11:40:31;;;;;;;;;;;;;;;27.10;25.04;98724.81;5452736;26;19961;-27
2024/04/20 11:42:57;;;;;;;;;;;;;;;26.73;25.07;98716.50;5453573;26;19932;-26
2024/04/20 11:45:23;;;;;;;;;;;;;;;26.46;25.92;98729.56;5453282;26;19965;-27
2024/04/20 11:47:48;;;;;;;;;;;;;;;26.15;25.79;98724.53;5452614;26;19931;-27
2024/04/20 11:50:15;;;;;;;;;;;;;;;26.69;25.59;98718.31;5452944;26;20229;-27
2024/04/20 11:55:24;;;;;;;;;;;;;;;27.27;23.44;98721.13;5452006;26;20009;-28
2024/04/20 11:57:54;;;;;;;;;;;;;;;26.99;24.67;98716.25;5452463;26;20360;-27
2024/04/20 12:00:19;;;;;;;;;;;;;;;26.12;24.93;98723.25;5453330;26;19925;-26
2024/04/20 12:02:48;;;;;;;;;;;;;;;25.55;25.89;98721.81;5453772;26;19954;-27
2024/04/20 12:05:13;;;;;;;;;;;;;;;25.77;25.74;98721.84;5453392;26;19935;-27
2024/04/20 12:07:39;;;;;;;;;;;;;;;25.16;25.97;98723.66;5452773;26;19924;-27
2024/04/20 12:10:05;;;;;;;;;;;;;;;25.50;26.59;98721.19;5452083;26;20439;-26
2024/04/20 12:12:31;;;;;;;;;;;;;;;25.04;26.74;98729.00;5452424;26;19932;-27
2024/04/20 12:14:56;;;;;;;;;;;;;;;24.89;26.53;98724.06;5453755;26;20471;-27
2024/04/20 12:17:21;;;;;;;;;;;;;;;24.92;26.73;98718.78;5453097;26;19924;-27
2024/04/20 12:19:47;;;;;;;;;;;;;;;24.37;27.30;98724.91;5453047;26;19993;-27
2024/04/20 12:22:15;;;;;;;;;;;;;;;24.15;27.30;98729.34;5453183;26;19954;-28
2024/04/20 12:24:40;;;;;;;;;;;;;;;24.09;27.22;98732.53;5453129;26;19925;-26
2024/04/20 12:27:06;;;;;;;;;;;;;;;23.02;27.45;98734.31;5451880;26;19968;-26
2024/04/20 12:29:31;;;;;;;;;;;;;;;23.58;27.12;98732.84;5453119;26;19925;-29
2024/04/20 12:31:56;;;;;;;;;;;;;;;22.97;27.77;98734.44;5452673;26;19931;-27
2024/04/20 12:34:21;;;;;;;;;;;;;;;22.98;28.66;98733.31;5452962;26;19924;-27
2024/04/20 12:36:49;;;;;;;;;;;;;;;22.31;28.44;98732.19;5452841;26;19924;-26
2024/04/20 12:39:15;;;;;;;;;;;;;;;22.21;28.95;98732.41;5453024;26;19933;-27
2024/04/20 12:41:40;;;;;;;;;;;;;;;22.23;29.42;98736.41;5438755;26;19955;-27